Date,TemperatureHighF,TemperatureAvgF,TemperatureLowF,DewpointHighF,DewpointAvgF,DewpointLowF,HumidityHigh,HumidityAvg,HumidityLow,PressureMaxIn,PressureMinIn,WindSpeedMaxMPH,WindSpeedAvgMPH,GustSpeedMaxMPH,PrecipitationSumIn
2013-3-1,48,42,33,40,33,23,76,69,62,30.53,30.48,10,4,13,0.00
2013-3-2,46,39,32,38,30,21,76,70,64,30.49,30.29,6,3,7,0.01
2013-3-3,46,42,38,38,34,29,76,72,65,30.29,30.05,10,4,10,0.00
2013-3-4,44,41,34,37,33,25,76,75,68,30.05,29.73,10,5,12,0.00
2013-3-5,47,40,33,40,30,23,76,68,62,29.73,29.57,12,6,14,0.01
2013-3-6,47,44,42,43,36,31,95,74,62,29.56,29.47,16,11,19,0.13
2013-3-7,46,45,44,45,43,42,97,94,93,29.45,29.30,18,13,24,0.78
2013-3-8,48,46,44,46,44,42,95,92,89,29.50,29.29,18,14,26,0.35
2013-3-9,44,42,40,42,40,39,100,93,90,29.71,29.50,19,15,22,0.19
2013-3-10,41,38,34,40,33,19,100,81,53,29.96,29.71,23,20,28,0.07
2013-3-11,36,33,31,23,20,16,69,60,51,30.09,29.96,20,14,24,0.00
2013-3-12,40,36,31,29,25,19,68,62,53,30.11,29.99,14,7,20,0.00
2013-3-13,47,37,31,34,26,18,68,63,56,30.07,29.97,14,7,16,0.03
2013-3-14,47,40,31,37,30,20,69,66,60,30.08,29.72,18,10,18,0.01
2013-3-15,48,41,34,36,29,-100,90,66,55,29.69,29.35,19,-10,23,0.06
2013-3-16,46,38,32,36,33,30,94,80,56,29.34,29.27,16,5,16,0.01
2013-3-17,40,36,32,37,33,30,96,92,86,29.29,29.12,8,5,9,0.17
2013-3-18,44,38,35,38,35,31,95,87,77,29.46,29.17,14,8,15,0.26
2013-3-19,38,35,32,34,32,29,96,90,83,29.52,29.45,11,6,17,0.21
2013-3-20,42,37,32,39,35,31,97,92,85,29.88,29.52,12,6,12,0.06
2013-3-21,41,39,37,37,35,34,92,85,79,29.90,29.61,25,17,28,0.38
2013-3-22,40,38,37,39,36,35,95,94,92,29.69,29.53,27,20,27,0.99
2013-3-23,37,36,34,35,34,31,94,91,84,29.94,29.70,21,17,24,0.31
2013-3-24,36,35,34,31,28,26,84,77,71,30.07,29.93,24,21,31,0.00
2013-3-25,38,36,34,29,27,25,75,70,65,30.12,30.07,22,18,26,0.00
2013-3-26,38,35,31,31,28,24,91,76,65,30.11,30.04,20,13,20,0.05
2013-3-27,38,34,31,33,29,26,93,83,70,30.03,29.99,20,9,21,0.08
2013-3-28,38,36,31,32,28,25,90,74,62,30.01,29.93,16,12,18,0.02
2013-3-29,38,36,33,27,25,24,72,66,58,29.93,29.84,18,12,23,0.00
2013-3-30,39,37,35,28,25,24,73,63,55,29.96,29.86,13,8,14,0.00
2013-3-31,40,38,36,29,27,25,74,67,61,29.94,29.84,18,12,22,0.00